sensor_id;sensor_type;location;lat;lon;timestamp;P1;durP1;ratioP1;P2;durP2;ratioP2
66870;SDS011;53780;44.998;9.926;2023-10-09T00:02:27;12.05;;;2.67;;
66870;SDS011;53780;44.998;9.926;2023-10-09T00:05:33;8.50;;;2.10;;
66870;SDS011;53780;44.998;9.926;2023-10-09T00:08:48;9.02;;;2.35;;
66870;SDS011;53780;44.998;9.926;2023-10-09T00:11:58;16.33;;;2.60;;
66870;SDS011;53780;44.998;9.926;2023-10-09T00:15:03;12.40;;;2.83;;
66870;SDS011;53780;44.998;9.926;2023-10-09T00:18:15;14.15;;;3.15;;
66870;SDS011;53780;44.998;9.926;2023-10-09T00:21:19;12.50;;;2.70;;
66870;SDS011;53780;44.998;9.926;2023-10-09T00:24:26;15.68;;;2.67;;
66870;SDS011;53780;44.998;9.926;2023-10-09T00:27:31;14.00;;;2.67;;
66870;SDS011;53780;44.998;9.926;2023-10-09T00:30:43;16.63;;;3.10;;
66870;SDS011;53780;44.998;9.926;2023-10-09T00:33:47;12.60;;;3.08;;
66870;SDS011;53780;44.998;9.926;2023-10-09T00:36:50;18.85;;;3.53;;
66870;SDS011;53780;44.998;9.926;2023-10-09T00:39:54;20.05;;;3.97;;
66870;SDS011;53780;44.998;9.926;2023-10-09T00:43:01;14.83;;;3.27;;
66870;SDS011;53780;44.998;9.926;2023-10-09T00:46:14;14.60;;;4.10;;
66870;SDS011;53780;44.998;9.926;2023-10-09T00:49:24;22.52;;;4.20;;
66870;SDS011;53780;44.998;9.926;2023-10-09T00:52:31;20.75;;;3.80;;
66870;SDS011;53780;44.998;9.926;2023-10-09T00:56:00;17.38;;;3.95;;
66870;SDS011;53780;44.998;9.926;2023-10-09T00:59:31;12.33;;;4.23;;
66870;SDS011;53780;44.998;9.926;2023-10-09T01:02:37;19.85;;;5.00;;
66870;SDS011;53780;44.998;9.926;2023-10-09T01:05:47;17.45;;;4.90;;
66870;SDS011;53780;44.998;9.926;2023-10-09T01:09:01;17.38;;;5.40;;
66870;SDS011;53780;44.998;9.926;2023-10-09T01:12:13;19.02;;;5.85;;
66870;SDS011;53780;44.998;9.926;2023-10-09T01:15:24;16.47;;;5.73;;
66870;SDS011;53780;44.998;9.926;2023-10-09T01:18:48;21.92;;;6.35;;
66870;SDS011;53780;44.998;9.926;2023-10-09T01:21:54;22.30;;;7.70;;
66870;SDS011;53780;44.998;9.926;2023-10-09T01:24:58;22.23;;;6.20;;
66870;SDS011;53780;44.998;9.926;2023-10-09T01:28:01;22.70;;;6.88;;
66870;SDS011;53780;44.998;9.926;2023-10-09T01:31:05;17.53;;;6.60;;
66870;SDS011;53780;44.998;9.926;2023-10-09T01:34:10;19.30;;;7.80;;
66870;SDS011;53780;44.998;9.926;2023-10-09T01:37:19;22.90;;;7.85;;
66870;SDS011;53780;44.998;9.926;2023-10-09T01:40:32;23.77;;;6.60;;
66870;SDS011;53780;44.998;9.926;2023-10-09T01:43:41;18.83;;;6.40;;
66870;SDS011;53780;44.998;9.926;2023-10-09T01:46:48;21.00;;;6.67;;
66870;SDS011;53780;44.998;9.926;2023-10-09T01:49:55;21.63;;;7.80;;
66870;SDS011;53780;44.998;9.926;2023-10-09T01:53:01;18.70;;;7.22;;
66870;SDS011;53780;44.998;9.926;2023-10-09T01:56:09;21.42;;;8.32;;
66870;SDS011;53780;44.998;9.926;2023-10-09T01:59:19;21.65;;;7.72;;
66870;SDS011;53780;44.998;9.926;2023-10-09T02:02:24;19.33;;;7.43;;
66870;SDS011;53780;44.998;9.926;2023-10-09T02:05:28;20.85;;;7.28;;
66870;SDS011;53780;44.998;9.926;2023-10-09T02:08:37;20.88;;;6.78;;
66870;SDS011;53780;44.998;9.926;2023-10-09T02:11:40;22.42;;;7.75;;
66870;SDS011;53780;44.998;9.926;2023-10-09T02:14:46;20.80;;;7.90;;
66870;SDS011;53780;44.998;9.926;2023-10-09T02:17:50;19.43;;;7.70;;
66870;SDS011;53780;44.998;9.926;2023-10-09T02:21:04;24.20;;;8.57;;
66870;SDS011;53780;44.998;9.926;2023-10-09T02:24:09;23.65;;;8.32;;
66870;SDS011;53780;44.998;9.926;2023-10-09T02:27:13;21.00;;;7.60;;
66870;SDS011;53780;44.998;9.926;2023-10-09T02:30:23;17.90;;;7.45;;
66870;SDS011;53780;44.998;9.926;2023-10-09T02:33:33;24.30;;;7.53;;
66870;SDS011;53780;44.998;9.926;2023-10-09T02:36:39;19.67;;;7.07;;
66870;SDS011;53780;44.998;9.926;2023-10-09T02:40:06;22.02;;;7.30;;
66870;SDS011;53780;44.998;9.926;2023-10-09T02:43:11;19.85;;;6.82;;
66870;SDS011;53780;44.998;9.926;2023-10-09T02:46:21;19.00;;;7.28;;
66870;SDS011;53780;44.998;9.926;2023-10-09T02:49:32;23.93;;;8.63;;
66870;SDS011;53780;44.998;9.926;2023-10-09T02:52:37;19.33;;;8.30;;
66870;SDS011;53780;44.998;9.926;2023-10-09T02:55:44;19.50;;;6.80;;
66870;SDS011;53780;44.998;9.926;2023-10-09T02:59:08;17.02;;;6.35;;
66870;SDS011;53780;44.998;9.926;2023-10-09T03:02:12;20.23;;;6.82;;
66870;SDS011;53780;44.998;9.926;2023-10-09T03:05:16;18.23;;;6.67;;
66870;SDS011;53780;44.998;9.926;2023-10-09T03:08:20;21.00;;;7.35;;
66870;SDS011;53780;44.998;9.926;2023-10-09T03:11:24;18.50;;;7.28;;
66870;SDS011;53780;44.998;9.926;2023-10-09T03:14:30;22.20;;;7.65;;
66870;SDS011;53780;44.998;9.926;2023-10-09T03:17:41;17.23;;;7.47;;
66870;SDS011;53780;44.998;9.926;2023-10-09T03:20:46;18.00;;;6.20;;
66870;SDS011;53780;44.998;9.926;2023-10-09T03:23:51;16.40;;;5.82;;
66870;SDS011;53780;44.998;9.926;2023-10-09T03:26:54;19.80;;;6.05;;
66870;SDS011;53780;44.998;9.926;2023-10-09T03:30:01;18.15;;;6.20;;
66870;SDS011;53780;44.998;9.926;2023-10-09T03:33:08;18.48;;;6.85;;
66870;SDS011;53780;44.998;9.926;2023-10-09T03:36:12;21.03;;;6.33;;
66870;SDS011;53780;44.998;9.926;2023-10-09T03:39:16;19.65;;;6.45;;
66870;SDS011;53780;44.998;9.926;2023-10-09T03:42:42;20.23;;;6.03;;
66870;SDS011;53780;44.998;9.926;2023-10-09T03:45:46;20.52;;;6.60;;
66870;SDS011;53780;44.998;9.926;2023-10-09T03:49:01;21.45;;;7.15;;
66870;SDS011;53780;44.998;9.926;2023-10-09T03:52:05;18.17;;;6.50;;
66870;SDS011;53780;44.998;9.926;2023-10-09T03:55:13;20.13;;;6.55;;
66870;SDS011;53780;44.998;9.926;2023-10-09T03:58:16;18.20;;;6.30;;
66870;SDS011;53780;44.998;9.926;2023-10-09T04:01:22;18.20;;;5.90;;
66870;SDS011;53780;44.998;9.926;2023-10-09T04:04:30;14.00;;;6.03;;
66870;SDS011;53780;44.998;9.926;2023-10-09T04:07:36;16.53;;;5.90;;
66870;SDS011;53780;44.998;9.926;2023-10-09T04:10:40;18.95;;;6.03;;
66870;SDS011;53780;44.998;9.926;2023-10-09T04:13:48;17.45;;;5.63;;
66870;SDS011;53780;44.998;9.926;2023-10-09T04:16:53;13.05;;;4.78;;
66870;SDS011;53780;44.998;9.926;2023-10-09T04:20:26;15.45;;;5.32;;
66870;SDS011;53780;44.998;9.926;2023-10-09T04:23:33;17.17;;;5.03;;
66870;SDS011;53780;44.998;9.926;2023-10-09T04:26:57;16.33;;;5.45;;
66870;SDS011;53780;44.998;9.926;2023-10-09T04:30:01;16.95;;;5.57;;
66870;SDS011;53780;44.998;9.926;2023-10-09T04:33:04;17.25;;;5.03;;
66870;SDS011;53780;44.998;9.926;2023-10-09T04:36:14;15.38;;;4.68;;
66870;SDS011;53780;44.998;9.926;2023-10-09T04:39:24;20.90;;;5.47;;
66870;SDS011;53780;44.998;9.926;2023-10-09T04:42:33;17.98;;;4.03;;
66870;SDS011;53780;44.998;9.926;2023-10-09T04:45:40;17.75;;;5.05;;
66870;SDS011;53780;44.998;9.926;2023-10-09T04:48:46;19.83;;;5.10;;
66870;SDS011;53780;44.998;9.926;2023-10-09T04:51:50;17.20;;;4.88;;
66870;SDS011;53780;44.998;9.926;2023-10-09T04:55:20;17.77;;;5.60;;
66870;SDS011;53780;44.998;9.926;2023-10-09T04:58:28;20.42;;;4.70;;
66870;SDS011;53780;44.998;9.926;2023-10-09T05:01:35;17.08;;;4.45;;
66870;SDS011;53780;44.998;9.926;2023-10-09T05:04:49;17.88;;;4.32;;
66870;SDS011;53780;44.998;9.926;2023-10-09T05:08:17;25.55;;;7.47;;
66870;SDS011;53780;44.998;9.926;2023-10-09T05:11:25;33.80;;;11.43;;
66870;SDS011;53780;44.998;9.926;2023-10-09T05:14:38;41.92;;;12.82;;
66870;SDS011;53780;44.998;9.926;2023-10-09T05:17:42;47.78;;;17.33;;
66870;SDS011;53780;44.998;9.926;2023-10-09T05:20:55;32.75;;;10.27;;
66870;SDS011;53780;44.998;9.926;2023-10-09T05:24:02;34.47;;;10.90;;
66870;SDS011;53780;44.998;9.926;2023-10-09T05:27:17;30.80;;;8.97;;
66870;SDS011;53780;44.998;9.926;2023-10-09T05:30:21;26.42;;;8.25;;
66870;SDS011;53780;44.998;9.926;2023-10-09T05:33:30;31.42;;;10.02;;
66870;SDS011;53780;44.998;9.926;2023-10-09T05:36:37;24.70;;;5.75;;
66870;SDS011;53780;44.998;9.926;2023-10-09T05:39:41;34.47;;;7.30;;
66870;SDS011;53780;44.998;9.926;2023-10-09T05:42:45;25.30;;;7.43;;
66870;SDS011;53780;44.998;9.926;2023-10-09T05:46:01;13.25;;;3.50;;
66870;SDS011;53780;44.998;9.926;2023-10-09T05:49:11;16.30;;;3.97;;
66870;SDS011;53780;44.998;9.926;2023-10-09T05:52:23;18.85;;;3.60;;
66870;SDS011;53780;44.998;9.926;2023-10-09T05:55:45;18.95;;;3.45;;
66870;SDS011;53780;44.998;9.926;2023-10-09T05:59:08;13.13;;;2.73;;
66870;SDS011;53780;44.998;9.926;2023-10-09T06:02:30;11.98;;;2.40;;
66870;SDS011;53780;44.998;9.926;2023-10-09T06:05:52;13.43;;;2.10;;
66870;SDS011;53780;44.998;9.926;2023-10-09T06:09:01;14.43;;;2.65;;
66870;SDS011;53780;44.998;9.926;2023-10-09T06:12:19;9.13;;;2.08;;
66870;SDS011;53780;44.998;9.926;2023-10-09T06:15:38;15.27;;;2.40;;
66870;SDS011;53780;44.998;9.926;2023-10-09T06:18:50;10.07;;;2.03;;
66870;SDS011;53780;44.998;9.926;2023-10-09T06:22:15;12.73;;;2.30;;
66870;SDS011;53780;44.998;9.926;2023-10-09T06:25:37;10.65;;;2.05;;
66870;SDS011;53780;44.998;9.926;2023-10-09T06:28:42;11.70;;;2.50;;
66870;SDS011;53780;44.998;9.926;2023-10-09T06:31:53;18.10;;;2.27;;
66870;SDS011;53780;44.998;9.926;2023-10-09T06:35:19;15.13;;;2.22;;
66870;SDS011;53780;44.998;9.926;2023-10-09T06:38:25;11.88;;;2.42;;
66870;SDS011;53780;44.998;9.926;2023-10-09T06:41:49;11.68;;;2.38;;
66870;SDS011;53780;44.998;9.926;2023-10-09T06:45:13;14.63;;;2.95;;
66870;SDS011;53780;44.998;9.926;2023-10-09T06:48:17;13.87;;;2.23;;
66870;SDS011;53780;44.998;9.926;2023-10-09T06:51:39;14.15;;;2.72;;
66870;SDS011;53780;44.998;9.926;2023-10-09T06:54:46;25.02;;;3.72;;
66870;SDS011;53780;44.998;9.926;2023-10-09T06:57:54;17.05;;;4.18;;
66870;SDS011;53780;44.998;9.926;2023-10-09T07:00:58;19.15;;;4.13;;
66870;SDS011;53780;44.998;9.926;2023-10-09T07:04:34;19.13;;;3.30;;
66870;SDS011;53780;44.998;9.926;2023-10-09T07:07:38;18.58;;;3.70;;
66870;SDS011;53780;44.998;9.926;2023-10-09T07:10:53;24.73;;;4.43;;
66870;SDS011;53780;44.998;9.926;2023-10-09T07:14:21;19.42;;;4.55;;
66870;SDS011;53780;44.998;9.926;2023-10-09T07:17:37;20.92;;;5.10;;
66870;SDS011;53780;44.998;9.926;2023-10-09T07:20:41;21.07;;;4.90;;
66870;SDS011;53780;44.998;9.926;2023-10-09T07:23:49;19.92;;;5.90;;
66870;SDS011;53780;44.998;9.926;2023-10-09T07:26:52;21.88;;;6.13;;
66870;SDS011;53780;44.998;9.926;2023-10-09T07:29:58;22.92;;;6.00;;
66870;SDS011;53780;44.998;9.926;2023-10-09T07:33:03;19.58;;;6.97;;
66870;SDS011;53780;44.998;9.926;2023-10-09T07:36:18;21.97;;;6.43;;
66870;SDS011;53780;44.998;9.926;2023-10-09T07:39:37;18.42;;;7.18;;
66870;SDS011;53780;44.998;9.926;2023-10-09T07:42:41;17.00;;;6.82;;
66870;SDS011;53780;44.998;9.926;2023-10-09T07:45:44;20.63;;;6.70;;
66870;SDS011;53780;44.998;9.926;2023-10-09T07:48:58;22.65;;;7.60;;
66870;SDS011;53780;44.998;9.926;2023-10-09T07:52:11;25.90;;;6.90;;
66870;SDS011;53780;44.998;9.926;2023-10-09T07:55:16;18.52;;;7.10;;
66870;SDS011;53780;44.998;9.926;2023-10-09T07:58:29;17.02;;;6.53;;
66870;SDS011;53780;44.998;9.926;2023-10-09T08:01:34;24.38;;;6.90;;
66870;SDS011;53780;44.998;9.926;2023-10-09T08:04:39;20.15;;;6.88;;
66870;SDS011;53780;44.998;9.926;2023-10-09T08:07:51;18.90;;;6.37;;
66870;SDS011;53780;44.998;9.926;2023-10-09T08:11:01;20.08;;;6.80;;
66870;SDS011;53780;44.998;9.926;2023-10-09T08:14:23;15.48;;;6.18;;
66870;SDS011;53780;44.998;9.926;2023-10-09T08:17:36;19.70;;;6.55;;
66870;SDS011;53780;44.998;9.926;2023-10-09T08:20:41;23.80;;;6.85;;
66870;SDS011;53780;44.998;9.926;2023-10-09T08:24:03;16.67;;;5.73;;
66870;SDS011;53780;44.998;9.926;2023-10-09T08:27:08;17.00;;;5.88;;
66870;SDS011;53780;44.998;9.926;2023-10-09T08:30:51;18.73;;;6.05;;
66870;SDS011;53780;44.998;9.926;2023-10-09T08:33:57;18.23;;;5.82;;
66870;SDS011;53780;44.998;9.926;2023-10-09T08:37:01;17.65;;;5.50;;
66870;SDS011;53780;44.998;9.926;2023-10-09T08:40:05;15.10;;;6.07;;
66870;SDS011;53780;44.998;9.926;2023-10-09T08:43:21;19.30;;;6.35;;
66870;SDS011;53780;44.998;9.926;2023-10-09T08:46:26;19.63;;;5.95;;
66870;SDS011;53780;44.998;9.926;2023-10-09T08:49:31;17.40;;;6.07;;
66870;SDS011;53780;44.998;9.926;2023-10-09T08:52:38;17.77;;;5.95;;
66870;SDS011;53780;44.998;9.926;2023-10-09T08:55:43;21.30;;;5.90;;
66870;SDS011;53780;44.998;9.926;2023-10-09T08:58:55;18.85;;;6.30;;
66870;SDS011;53780;44.998;9.926;2023-10-09T09:02:00;23.02;;;6.72;;
66870;SDS011;53780;44.998;9.926;2023-10-09T09:05:16;14.82;;;6.25;;
66870;SDS011;53780;44.998;9.926;2023-10-09T09:08:21;20.48;;;6.22;;
66870;SDS011;53780;44.998;9.926;2023-10-09T09:11:28;16.90;;;5.80;;
66870;SDS011;53780;44.998;9.926;2023-10-09T09:14:39;21.40;;;6.53;;
66870;SDS011;53780;44.998;9.926;2023-10-09T09:17:42;19.70;;;6.10;;
66870;SDS011;53780;44.998;9.926;2023-10-09T09:20:46;17.90;;;5.55;;
66870;SDS011;53780;44.998;9.926;2023-10-09T09:23:59;19.90;;;6.35;;
66870;SDS011;53780;44.998;9.926;2023-10-09T09:27:18;21.63;;;5.40;;
66870;SDS011;53780;44.998;9.926;2023-10-09T09:30:23;16.15;;;5.93;;
66870;SDS011;53780;44.998;9.926;2023-10-09T09:33:28;14.15;;;5.90;;
66870;SDS011;53780;44.998;9.926;2023-10-09T09:36:49;21.05;;;6.45;;
66870;SDS011;53780;44.998;9.926;2023-10-09T09:39:57;19.27;;;6.22;;
66870;SDS011;53780;44.998;9.926;2023-10-09T09:43:04;17.70;;;5.80;;
66870;SDS011;53780;44.998;9.926;2023-10-09T09:46:08;16.23;;;5.72;;
66870;SDS011;53780;44.998;9.926;2023-10-09T09:49:15;14.43;;;5.30;;
66870;SDS011;53780;44.998;9.926;2023-10-09T09:52:28;13.77;;;5.53;;
66870;SDS011;53780;44.998;9.926;2023-10-09T09:55:41;15.13;;;5.47;;
66870;SDS011;53780;44.998;9.926;2023-10-09T09:58:56;13.53;;;5.23;;
66870;SDS011;53780;44.998;9.926;2023-10-09T10:02:06;15.75;;;4.55;;
66870;SDS011;53780;44.998;9.926;2023-10-09T10:05:13;12.30;;;4.75;;
66870;SDS011;53780;44.998;9.926;2023-10-09T10:08:20;16.88;;;4.78;;
66870;SDS011;53780;44.998;9.926;2023-10-09T10:11:41;15.32;;;4.70;;
66870;SDS011;53780;44.998;9.926;2023-10-09T10:14:52;14.17;;;4.10;;
66870;SDS011;53780;44.998;9.926;2023-10-09T10:21:11;19.17;;;4.53;;
66870;SDS011;53780;44.998;9.926;2023-10-09T10:35:14;19.30;;;4.60;;
66870;SDS011;53780;44.998;9.926;2023-10-09T10:38:26;18.88;;;4.70;;
66870;SDS011;53780;44.998;9.926;2023-10-09T10:41:37;13.15;;;3.97;;
66870;SDS011;53780;44.998;9.926;2023-10-09T10:44:58;22.05;;;4.60;;
66870;SDS011;53780;44.998;9.926;2023-10-09T10:48:05;18.70;;;4.60;;
66870;SDS011;53780;44.998;9.926;2023-10-09T10:51:14;17.55;;;4.45;;
66870;SDS011;53780;44.998;9.926;2023-10-09T10:54:23;17.58;;;4.10;;
66870;SDS011;53780;44.998;9.926;2023-10-09T10:57:37;15.80;;;4.20;;
66870;SDS011;53780;44.998;9.926;2023-10-09T11:00:57;20.70;;;4.05;;
66870;SDS011;53780;44.998;9.926;2023-10-09T11:04:10;14.00;;;4.00;;
66870;SDS011;53780;44.998;9.926;2023-10-09T11:07:16;16.92;;;3.88;;
66870;SDS011;53780;44.998;9.926;2023-10-09T11:10:27;23.45;;;4.75;;
66870;SDS011;53780;44.998;9.926;2023-10-09T11:13:32;18.63;;;4.00;;
66870;SDS011;53780;44.998;9.926;2023-10-09T11:16:38;17.92;;;3.90;;
66870;SDS011;53780;44.998;9.926;2023-10-09T11:19:46;14.97;;;3.70;;
66870;SDS011;53780;44.998;9.926;2023-10-09T11:22:51;13.65;;;4.32;;
66870;SDS011;53780;44.998;9.926;2023-10-09T11:26:13;16.98;;;3.55;;
66870;SDS011;53780;44.998;9.926;2023-10-09T11:29:30;13.60;;;3.88;;
66870;SDS011;53780;44.998;9.926;2023-10-09T11:32:47;17.40;;;5.30;;
66870;SDS011;53780;44.998;9.926;2023-10-09T11:35:56;16.67;;;5.00;;
66870;SDS011;53780;44.998;9.926;2023-10-09T11:39:04;18.85;;;5.20;;
66870;SDS011;53780;44.998;9.926;2023-10-09T11:42:20;17.63;;;4.93;;
66870;SDS011;53780;44.998;9.926;2023-10-09T11:45:42;14.80;;;4.88;;
66870;SDS011;53780;44.998;9.926;2023-10-09T11:49:07;20.98;;;5.45;;
66870;SDS011;53780;44.998;9.926;2023-10-09T11:52:24;17.60;;;4.80;;
66870;SDS011;53780;44.998;9.926;2023-10-09T11:55:37;14.80;;;4.13;;
66870;SDS011;53780;44.998;9.926;2023-10-09T11:58:41;18.58;;;4.18;;
66870;SDS011;53780;44.998;9.926;2023-10-09T12:01:46;16.13;;;4.90;;
66870;SDS011;53780;44.998;9.926;2023-10-09T12:04:56;16.92;;;4.40;;
66870;SDS011;53780;44.998;9.926;2023-10-09T12:07:59;21.47;;;5.40;;
66870;SDS011;53780;44.998;9.926;2023-10-09T12:11:05;19.55;;;5.70;;
66870;SDS011;53780;44.998;9.926;2023-10-09T12:14:11;19.95;;;6.38;;
66870;SDS011;53780;44.998;9.926;2023-10-09T12:17:15;20.67;;;5.10;;
66870;SDS011;53780;44.998;9.926;2023-10-09T12:20:19;14.90;;;4.93;;
66870;SDS011;53780;44.998;9.926;2023-10-09T12:23:35;17.20;;;4.77;;
66870;SDS011;53780;44.998;9.926;2023-10-09T12:26:39;16.02;;;4.85;;
66870;SDS011;53780;44.998;9.926;2023-10-09T12:29:46;17.42;;;5.10;;
66870;SDS011;53780;44.998;9.926;2023-10-09T12:32:49;15.40;;;4.22;;
66870;SDS011;53780;44.998;9.926;2023-10-09T12:35:54;22.77;;;5.47;;
66870;SDS011;53780;44.998;9.926;2023-10-09T12:39:03;16.30;;;4.77;;
66870;SDS011;53780;44.998;9.926;2023-10-09T12:42:08;14.93;;;3.88;;
66870;SDS011;53780;44.998;9.926;2023-10-09T12:45:15;16.80;;;4.78;;
66870;SDS011;53780;44.998;9.926;2023-10-09T12:48:20;15.27;;;3.92;;
66870;SDS011;53780;44.998;9.926;2023-10-09T12:51:27;14.68;;;4.35;;
66870;SDS011;53780;44.998;9.926;2023-10-09T12:54:33;14.53;;;3.90;;
66870;SDS011;53780;44.998;9.926;2023-10-09T12:57:37;16.95;;;4.40;;
66870;SDS011;53780;44.998;9.926;2023-10-09T13:00:41;12.60;;;3.03;;
66870;SDS011;53780;44.998;9.926;2023-10-09T13:03:52;14.60;;;4.43;;
66870;SDS011;53780;44.998;9.926;2023-10-09T13:06:57;14.15;;;4.45;;
66870;SDS011;53780;44.998;9.926;2023-10-09T13:10:06;16.90;;;4.37;;
66870;SDS011;53780;44.998;9.926;2023-10-09T13:13:13;18.33;;;4.00;;
66870;SDS011;53780;44.998;9.926;2023-10-09T13:16:21;13.93;;;3.70;;
66870;SDS011;53780;44.998;9.926;2023-10-09T13:19:28;14.63;;;4.35;;
66870;SDS011;53780;44.998;9.926;2023-10-09T13:22:32;13.43;;;3.42;;
66870;SDS011;53780;44.998;9.926;2023-10-09T13:25:35;13.70;;;3.40;;
66870;SDS011;53780;44.998;9.926;2023-10-09T13:28:46;16.92;;;3.72;;
66870;SDS011;53780;44.998;9.926;2023-10-09T13:31:51;16.00;;;3.38;;
66870;SDS011;53780;44.998;9.926;2023-10-09T13:35:05;17.60;;;3.42;;
66870;SDS011;53780;44.998;9.926;2023-10-09T13:38:09;14.15;;;3.75;;
66870;SDS011;53780;44.998;9.926;2023-10-09T13:41:13;16.43;;;3.60;;
66870;SDS011;53780;44.998;9.926;2023-10-09T13:44:18;13.75;;;3.65;;
66870;SDS011;53780;44.998;9.926;2023-10-09T13:47:22;13.65;;;3.70;;
66870;SDS011;53780;44.998;9.926;2023-10-09T13:50:32;15.77;;;3.90;;
66870;SDS011;53780;44.998;9.926;2023-10-09T13:53:36;13.13;;;3.65;;
66870;SDS011;53780;44.998;9.926;2023-10-09T13:56:48;13.73;;;3.63;;
66870;SDS011;53780;44.998;9.926;2023-10-09T13:59:56;13.07;;;4.05;;
66870;SDS011;53780;44.998;9.926;2023-10-09T14:03:00;13.38;;;3.65;;
66870;SDS011;53780;44.998;9.926;2023-10-09T14:06:15;16.42;;;4.32;;
66870;SDS011;53780;44.998;9.926;2023-10-09T14:09:23;38.25;;;4.57;;
66870;SDS011;53780;44.998;9.926;2023-10-09T14:12:48;17.83;;;4.13;;
66870;SDS011;53780;44.998;9.926;2023-10-09T14:15:57;28.02;;;5.32;;
66870;SDS011;53780;44.998;9.926;2023-10-09T14:19:02;37.50;;;14.50;;
66870;SDS011;53780;44.998;9.926;2023-10-09T14:22:10;34.05;;;13.85;;
66870;SDS011;53780;44.998;9.926;2023-10-09T14:25:14;57.08;;;26.52;;
66870;SDS011;53780;44.998;9.926;2023-10-09T14:28:23;59.13;;;26.87;;
66870;SDS011;53780;44.998;9.926;2023-10-09T14:31:31;39.53;;;17.02;;
66870;SDS011;53780;44.998;9.926;2023-10-09T14:34:42;37.03;;;16.23;;
66870;SDS011;53780;44.998;9.926;2023-10-09T14:37:52;41.20;;;14.82;;
66870;SDS011;53780;44.998;9.926;2023-10-09T14:40:59;39.92;;;17.77;;
66870;SDS011;53780;44.998;9.926;2023-10-09T14:44:04;32.20;;;8.80;;
66870;SDS011;53780;44.998;9.926;2023-10-09T14:47:12;21.70;;;6.30;;
66870;SDS011;53780;44.998;9.926;2023-10-09T14:50:21;29.65;;;11.43;;
66870;SDS011;53780;44.998;9.926;2023-10-09T14:53:26;23.55;;;9.90;;
66870;SDS011;53780;44.998;9.926;2023-10-09T14:56:32;22.42;;;7.90;;
66870;SDS011;53780;44.998;9.926;2023-10-09T14:59:39;24.60;;;8.43;;
66870;SDS011;53780;44.998;9.926;2023-10-09T15:02:43;40.35;;;7.13;;
66870;SDS011;53780;44.998;9.926;2023-10-09T15:05:48;25.65;;;6.68;;
66870;SDS011;53780;44.998;9.926;2023-10-09T15:08:53;55.58;;;6.90;;
66870;SDS011;53780;44.998;9.926;2023-10-09T15:11:59;25.85;;;6.47;;
66870;SDS011;53780;44.998;9.926;2023-10-09T15:15:03;19.43;;;4.87;;
66870;SDS011;53780;44.998;9.926;2023-10-09T15:18:15;15.95;;;4.95;;
66870;SDS011;53780;44.998;9.926;2023-10-09T15:21:22;15.00;;;4.45;;
66870;SDS011;53780;44.998;9.926;2023-10-09T15:24:29;14.73;;;4.22;;
66870;SDS011;53780;44.998;9.926;2023-10-09T15:27:33;16.85;;;4.63;;
66870;SDS011;53780;44.998;9.926;2023-10-09T15:30:37;13.20;;;5.10;;
66870;SDS011;53780;44.998;9.926;2023-10-09T15:33:42;15.18;;;4.80;;
66870;SDS011;53780;44.998;9.926;2023-10-09T15:36:46;13.15;;;5.00;;
66870;SDS011;53780;44.998;9.926;2023-10-09T15:39:50;16.90;;;4.03;;
66870;SDS011;53780;44.998;9.926;2023-10-09T15:42:54;16.00;;;4.07;;
66870;SDS011;53780;44.998;9.926;2023-10-09T15:45:59;14.47;;;4.07;;
66870;SDS011;53780;44.998;9.926;2023-10-09T15:49:03;15.70;;;4.13;;
66870;SDS011;53780;44.998;9.926;2023-10-09T15:52:07;14.73;;;4.35;;
66870;SDS011;53780;44.998;9.926;2023-10-09T15:55:12;11.00;;;3.83;;
66870;SDS011;53780;44.998;9.926;2023-10-09T15:58:19;15.50;;;4.10;;
66870;SDS011;53780;44.998;9.926;2023-10-09T16:01:23;15.20;;;4.80;;
66870;SDS011;53780;44.998;9.926;2023-10-09T16:04:27;18.98;;;4.22;;
66870;SDS011;53780;44.998;9.926;2023-10-09T16:07:31;15.07;;;4.55;;
66870;SDS011;53780;44.998;9.926;2023-10-09T16:10:34;14.82;;;4.00;;
66870;SDS011;53780;44.998;9.926;2023-10-09T16:13:39;14.98;;;3.80;;
66870;SDS011;53780;44.998;9.926;2023-10-09T16:16:43;16.50;;;3.90;;
66870;SDS011;53780;44.998;9.926;2023-10-09T16:19:48;13.27;;;4.13;;
66870;SDS011;53780;44.998;9.926;2023-10-09T16:22:54;19.45;;;4.38;;
66870;SDS011;53780;44.998;9.926;2023-10-09T16:25:59;14.25;;;4.05;;
66870;SDS011;53780;44.998;9.926;2023-10-09T16:29:03;16.75;;;3.70;;
66870;SDS011;53780;44.998;9.926;2023-10-09T16:32:07;13.87;;;4.37;;
66870;SDS011;53780;44.998;9.926;2023-10-09T16:35:11;10.65;;;4.00;;
66870;SDS011;53780;44.998;9.926;2023-10-09T16:38:15;15.57;;;4.03;;
66870;SDS011;53780;44.998;9.926;2023-10-09T16:41:20;12.63;;;3.90;;
66870;SDS011;53780;44.998;9.926;2023-10-09T16:44:29;16.77;;;4.13;;
66870;SDS011;53780;44.998;9.926;2023-10-09T16:47:34;18.17;;;5.07;;
66870;SDS011;53780;44.998;9.926;2023-10-09T16:50:43;21.85;;;5.60;;
66870;SDS011;53780;44.998;9.926;2023-10-09T16:53:50;20.48;;;5.10;;
66870;SDS011;53780;44.998;9.926;2023-10-09T16:56:59;21.48;;;5.25;;
66870;SDS011;53780;44.998;9.926;2023-10-09T17:00:08;21.45;;;6.10;;
66870;SDS011;53780;44.998;9.926;2023-10-09T17:03:16;19.30;;;4.97;;
66870;SDS011;53780;44.998;9.926;2023-10-09T17:06:21;20.42;;;4.95;;
66870;SDS011;53780;44.998;9.926;2023-10-09T17:09:25;18.67;;;5.07;;
66870;SDS011;53780;44.998;9.926;2023-10-09T17:12:31;31.05;;;4.95;;
66870;SDS011;53780;44.998;9.926;2023-10-09T17:15:35;25.02;;;4.88;;
66870;SDS011;53780;44.998;9.926;2023-10-09T17:18:39;27.23;;;5.20;;
66870;SDS011;53780;44.998;9.926;2023-10-09T17:21:43;15.60;;;3.80;;
66870;SDS011;53780;44.998;9.926;2023-10-09T17:24:47;20.25;;;4.80;;
66870;SDS011;53780;44.998;9.926;2023-10-09T17:27:50;30.65;;;6.25;;
66870;SDS011;53780;44.998;9.926;2023-10-09T17:31:03;30.20;;;5.82;;
66870;SDS011;53780;44.998;9.926;2023-10-09T17:34:07;39.40;;;6.20;;
66870;SDS011;53780;44.998;9.926;2023-10-09T17:37:11;27.33;;;5.07;;
66870;SDS011;53780;44.998;9.926;2023-10-09T17:40:15;41.20;;;5.60;;
66870;SDS011;53780;44.998;9.926;2023-10-09T17:43:23;35.15;;;5.78;;
66870;SDS011;53780;44.998;9.926;2023-10-09T17:46:28;33.45;;;6.00;;
66870;SDS011;53780;44.998;9.926;2023-10-09T17:49:33;28.30;;;5.03;;
66870;SDS011;53780;44.998;9.926;2023-10-09T17:52:37;24.77;;;5.00;;
66870;SDS011;53780;44.998;9.926;2023-10-09T17:55:40;22.77;;;4.90;;
66870;SDS011;53780;44.998;9.926;2023-10-09T17:58:47;20.60;;;5.32;;
66870;SDS011;53780;44.998;9.926;2023-10-09T18:01:54;14.13;;;4.45;;
66870;SDS011;53780;44.998;9.926;2023-10-09T18:05:00;21.10;;;5.87;;
66870;SDS011;53780;44.998;9.926;2023-10-09T18:08:05;13.45;;;4.18;;
66870;SDS011;53780;44.998;9.926;2023-10-09T18:11:09;15.27;;;4.80;;
66870;SDS011;53780;44.998;9.926;2023-10-09T18:14:17;21.45;;;4.55;;
66870;SDS011;53780;44.998;9.926;2023-10-09T18:17:22;21.85;;;4.07;;
66870;SDS011;53780;44.998;9.926;2023-10-09T18:20:26;13.63;;;4.50;;
66870;SDS011;53780;44.998;9.926;2023-10-09T18:23:33;15.90;;;4.70;;
66870;SDS011;53780;44.998;9.926;2023-10-09T18:26:42;13.23;;;4.00;;
66870;SDS011;53780;44.998;9.926;2023-10-09T18:29:47;11.77;;;4.05;;
66870;SDS011;53780;44.998;9.926;2023-10-09T18:32:53;22.95;;;4.53;;
66870;SDS011;53780;44.998;9.926;2023-10-09T18:36:06;17.33;;;5.23;;
66870;SDS011;53780;44.998;9.926;2023-10-09T18:39:13;25.83;;;9.85;;
66870;SDS011;53780;44.998;9.926;2023-10-09T18:42:17;47.03;;;19.67;;
66870;SDS011;53780;44.998;9.926;2023-10-09T18:45:21;53.22;;;22.33;;
66870;SDS011;53780;44.998;9.926;2023-10-09T18:48:25;97.82;;;45.40;;
66870;SDS011;53780;44.998;9.926;2023-10-09T18:51:32;23.83;;;8.80;;
66870;SDS011;53780;44.998;9.926;2023-10-09T18:54:38;19.33;;;5.03;;